createdAt,value
2017-05-19T00:00:07.990Z,947.44
2017-05-19T00:01:07.431Z,947.39
2017-05-19T00:02:07.918Z,947.36
2017-05-19T00:03:08.325Z,947.33
2017-05-19T00:04:08.024Z,947.34
2017-05-19T00:05:07.543Z,947.33
2017-05-19T00:06:08.067Z,947.31
2017-05-19T00:07:07.663Z,947.34
2017-05-19T00:08:08.262Z,947.33
2017-05-19T00:09:07.776Z,947.39
2017-05-19T00:10:07.585Z,947.33
2017-05-19T00:11:08.226Z,947.34
2017-05-19T00:12:07.723Z,947.35
2017-05-19T00:13:08.578Z,947.38
2017-05-19T00:14:08.251Z,947.37
2017-05-19T00:15:07.706Z,947.43
2017-05-19T00:16:08.487Z,947.39
2017-05-19T00:17:08.248Z,947.42
2017-05-19T00:18:07.811Z,947.45
2017-05-19T00:19:08.320Z,947.43
2017-05-19T00:20:07.949Z,947.40
2017-05-19T00:21:07.530Z,947.39
2017-05-19T00:22:08.010Z,947.40
2017-05-19T00:23:07.598Z,947.39
2017-05-19T00:24:08.530Z,947.30
2017-05-19T00:25:08.080Z,947.27
2017-05-19T00:26:07.942Z,947.29
2017-05-19T00:27:07.690Z,947.25
2017-05-19T00:28:08.268Z,947.25
2017-05-19T00:29:07.858Z,947.29
2017-05-19T00:30:07.651Z,947.30
2017-05-19T00:31:08.277Z,947.32
2017-05-19T00:32:07.861Z,947.30
2017-05-19T00:33:07.458Z,947.26
2017-05-19T00:34:08.014Z,947.23
2017-05-19T00:35:07.516Z,947.29
2017-05-19T00:36:08.531Z,947.31
2017-05-19T00:37:08.068Z,947.31
2017-05-19T00:38:07.714Z,947.28
2017-05-19T00:39:08.295Z,947.30
2017-05-19T00:40:07.903Z,947.29
2017-05-19T00:41:07.666Z,947.32
2017-05-19T00:42:08.228Z,947.34
2017-05-19T00:43:07.805Z,947.31
2017-05-19T00:44:07.338Z,947.27
2017-05-19T00:45:07.946Z,947.26
2017-05-19T00:46:07.553Z,947.34
2017-05-19T00:47:08.188Z,947.31
2017-05-19T00:48:07.791Z,947.27
2017-05-19T00:49:07.417Z,947.33
2017-05-19T00:50:07.984Z,947.31
2017-05-19T00:51:07.615Z,947.31
2017-05-19T00:52:08.384Z,947.31
2017-05-19T00:53:08.070Z,947.31
2017-05-19T00:54:07.604Z,947.34
2017-05-19T00:55:08.274Z,947.33
2017-05-19T00:56:07.888Z,947.36
2017-05-19T00:57:07.446Z,947.36
2017-05-19T00:58:08.398Z,947.42
2017-05-19T00:59:07.996Z,947.39
2017-05-19T01:00:07.557Z,947.37
2017-05-19T01:01:08.026Z,947.41
2017-05-19T01:02:07.457Z,947.43
2017-05-19T01:03:08.232Z,947.44
2017-05-19T01:04:07.815Z,947.36
2017-05-19T01:05:07.320Z,947.41
2017-05-19T01:06:07.917Z,947.39
2017-05-19T01:07:31.728Z,947.39
2017-05-19T01:08:08.354Z,947.40
2017-05-19T01:09:07.907Z,947.40
2017-05-19T01:10:07.695Z,947.39
2017-05-19T01:11:08.247Z,947.37
2017-05-19T01:12:07.738Z,947.38
2017-05-19T01:13:08.361Z,947.35
2017-05-19T01:14:07.858Z,947.43
2017-05-19T01:15:07.466Z,947.41
2017-05-19T01:16:08.266Z,947.42
2017-05-19T01:17:08.013Z,947.42
2017-05-19T01:18:07.705Z,947.40
2017-05-19T01:19:08.255Z,947.36
2017-05-19T01:20:07.856Z,947.42
2017-05-19T01:21:07.436Z,947.43
2017-05-19T01:22:08.066Z,947.41
2017-05-19T01:23:07.611Z,947.38
2017-05-19T01:24:08.121Z,947.36
2017-05-19T01:25:07.692Z,947.40
2017-05-19T01:26:08.344Z,947.41
2017-05-19T01:27:07.867Z,947.40
2017-05-19T01:28:07.378Z,947.41
2017-05-19T01:29:07.978Z,947.38
2017-05-19T01:30:07.522Z,947.35
2017-05-19T01:31:08.158Z,947.38
2017-05-19T01:32:07.807Z,947.33
2017-05-19T01:33:07.369Z,947.35
2017-05-19T01:34:08.272Z,947.36
2017-05-19T01:35:07.898Z,947.37
2017-05-19T01:36:07.420Z,947.34
2017-05-19T01:37:07.985Z,947.37
2017-05-19T01:38:07.855Z,947.44
2017-05-19T01:39:07.318Z,947.45
2017-05-19T01:40:07.862Z,947.41
2017-05-19T01:41:07.495Z,947.39
2017-05-19T01:42:07.981Z,947.40
2017-05-19T01:43:07.474Z,947.37
2017-05-19T01:44:07.976Z,947.39
2017-05-19T01:45:07.832Z,947.36
2017-05-19T01:46:07.323Z,947.44
2017-05-19T01:47:07.876Z,947.41
2017-05-19T01:48:07.412Z,947.38
2017-05-19T01:49:08.011Z,947.40
2017-05-19T01:50:07.572Z,947.36
2017-05-19T01:51:08.351Z,947.37
2017-05-19T01:52:08.026Z,947.37
2017-05-19T01:53:07.602Z,947.37
2017-05-19T01:54:08.089Z,947.35
2017-05-19T01:55:07.666Z,947.34
2017-05-19T01:56:08.425Z,947.34
2017-05-19T01:57:08.313Z,947.33
2017-05-19T01:58:08.058Z,947.33
2017-05-19T01:59:07.601Z,947.38
2017-05-19T02:00:08.203Z,947.40
2017-05-19T02:01:07.776Z,947.37
2017-05-19T02:02:07.342Z,947.39
2017-05-19T02:03:07.938Z,947.36
2017-05-19T02:04:07.518Z,947.31
2017-05-19T02:05:08.126Z,947.33
2017-05-19T02:06:07.752Z,947.34
2017-05-19T02:07:07.246Z,947.37
2017-05-19T02:08:07.878Z,947.38
2017-05-19T02:09:07.428Z,947.33
2017-05-19T02:10:07.993Z,947.34
2017-05-19T02:11:07.975Z,947.34
2017-05-19T02:12:07.557Z,947.33
2017-05-19T02:13:08.121Z,947.31
2017-05-19T02:14:07.774Z,947.37
2017-05-19T02:15:07.342Z,947.34
2017-05-19T02:16:07.947Z,947.33
2017-05-19T02:17:07.653Z,947.28
2017-05-19T02:18:08.211Z,947.33
2017-05-19T02:19:07.940Z,947.33
2017-05-19T02:20:07.464Z,947.29
2017-05-19T02:21:08.488Z,947.31
2017-05-19T02:22:07.982Z,947.34
2017-05-19T02:23:07.579Z,947.30
2017-05-19T02:24:08.178Z,947.34
2017-05-19T02:25:07.779Z,947.36
2017-05-19T02:26:07.676Z,947.32
2017-05-19T02:27:08.294Z,947.29
2017-05-19T02:28:08.004Z,947.33
2017-05-19T02:29:07.603Z,947.30
2017-05-19T02:30:08.231Z,947.29
2017-05-19T02:31:07.794Z,947.36
2017-05-19T02:32:07.356Z,947.31
2017-05-19T02:33:07.995Z,947.36
2017-05-19T02:34:07.505Z,947.34
2017-05-19T02:35:08.121Z,947.36
2017-05-19T02:36:07.772Z,947.36
2017-05-19T02:37:07.369Z,947.39
2017-05-19T02:38:07.948Z,947.33
2017-05-19T02:39:07.617Z,947.35
2017-05-19T02:40:08.206Z,947.35
2017-05-19T02:41:07.802Z,947.29
2017-05-19T02:42:07.404Z,947.34
2017-05-19T02:43:08.081Z,947.30
2017-05-19T02:44:07.713Z,947.28
2017-05-19T02:45:08.330Z,947.29
2017-05-19T02:46:07.917Z,947.30
2017-05-19T02:47:07.574Z,947.32
2017-05-19T02:48:08.059Z,947.29
2017-05-19T02:49:07.636Z,947.30
2017-05-19T02:50:08.259Z,947.30
2017-05-19T02:51:07.815Z,947.30
2017-05-19T02:52:07.395Z,947.34
2017-05-19T02:53:08.145Z,947.29
2017-05-19T02:54:07.747Z,947.29
2017-05-19T02:55:08.403Z,947.27
2017-05-19T02:56:08.408Z,947.26
2017-05-19T02:57:08.269Z,947.27
2017-05-19T02:58:07.894Z,947.27
2017-05-19T02:59:07.733Z,947.28
2017-05-19T03:00:07.373Z,947.24
2017-05-19T03:01:07.976Z,947.20
2017-05-19T03:02:07.552Z,947.17
2017-05-19T03:03:08.066Z,947.21
2017-05-19T03:04:07.631Z,947.19
2017-05-19T03:05:08.210Z,947.19
2017-05-19T03:06:08.067Z,947.15
2017-05-19T03:07:07.625Z,947.13
2017-05-19T03:08:08.222Z,947.12
2017-05-19T03:09:08.068Z,947.16
2017-05-19T03:10:07.664Z,947.15
2017-05-19T03:11:08.367Z,947.12
2017-05-19T03:12:07.948Z,947.08
2017-05-19T03:13:07.454Z,947.11
2017-05-19T03:14:08.016Z,947.09
2017-05-19T03:15:07.586Z,947.09
2017-05-19T03:16:08.270Z,947.06
2017-05-19T03:17:08.009Z,947.07
2017-05-19T03:18:07.590Z,947.07
2017-05-19T03:19:08.186Z,947.09
2017-05-19T03:20:07.923Z,947.09
2017-05-19T03:21:07.953Z,947.09
2017-05-19T03:22:07.562Z,947.07
2017-05-19T03:23:09.069Z,947.04
2017-05-19T03:24:07.611Z,947.06
2017-05-19T03:25:08.484Z,947.06
2017-05-19T03:26:08.042Z,947.07
2017-05-19T03:27:07.803Z,947.07
2017-05-19T03:28:07.364Z,947.04
2017-05-19T03:29:07.889Z,947.10
2017-05-19T03:30:07.459Z,947.06
2017-05-19T03:31:07.996Z,947.04
2017-05-19T03:32:07.601Z,947.08
2017-05-19T03:33:08.534Z,947.05
2017-05-19T03:34:08.054Z,947.06
2017-05-19T03:35:07.541Z,947.06
2017-05-19T03:36:08.105Z,947.04
2017-05-19T03:37:07.650Z,947.05
2017-05-19T03:38:08.171Z,947.06
2017-05-19T03:39:07.728Z,947.05
2017-05-19T03:40:08.330Z,947.03
2017-05-19T03:41:07.969Z,947.05
2017-05-19T03:42:07.569Z,947.05
2017-05-19T03:43:08.169Z,947.03
2017-05-19T03:44:07.810Z,947.05
2017-05-19T03:45:07.274Z,947.03
2017-05-19T03:46:07.920Z,947.03
2017-05-19T03:47:07.702Z,947.02
2017-05-19T03:48:08.282Z,947.01
2017-05-19T03:49:07.879Z,947.02
2017-05-19T03:50:07.499Z,947.08
2017-05-19T03:51:08.639Z,947.03
2017-05-19T03:52:08.298Z,947.04
2017-05-19T03:53:07.912Z,947.04
2017-05-19T03:54:07.434Z,947.05
2017-05-19T03:55:08.065Z,947.04
2017-05-19T03:56:07.659Z,947.05
2017-05-19T03:57:08.235Z,947.04
2017-05-19T03:58:08.023Z,947.05
2017-05-19T03:59:07.586Z,947.04
2017-05-19T04:00:08.272Z,947.03
2017-05-19T04:01:07.998Z,947.08
2017-05-19T04:02:07.549Z,947.07
2017-05-19T04:03:08.048Z,947.07
2017-05-19T04:04:07.538Z,947.08
2017-05-19T04:05:08.125Z,947.09
2017-05-19T04:06:07.820Z,947.10
2017-05-19T04:07:07.284Z,947.08
2017-05-19T04:08:08.001Z,947.15
2017-05-19T04:09:07.872Z,947.07
2017-05-19T04:10:07.407Z,947.09
2017-05-19T04:11:08.267Z,947.07
2017-05-19T04:12:07.828Z,947.11
2017-05-19T04:13:07.535Z,947.10
2017-05-19T04:14:08.137Z,947.08
2017-05-19T04:15:07.633Z,947.09
2017-05-19T04:16:08.161Z,947.09
2017-05-19T04:17:07.975Z,947.03
2017-05-19T04:18:07.675Z,947.05
2017-05-19T04:19:08.348Z,947.05
2017-05-19T04:20:08.077Z,947.01
2017-05-19T04:21:07.740Z,947.05
2017-05-19T04:22:08.307Z,947.03
2017-05-19T04:23:08.009Z,947.04
2017-05-19T04:24:07.600Z,947.03
2017-05-19T04:25:11.001Z,947.07
2017-05-19T04:26:07.904Z,947.08
2017-05-19T04:27:07.657Z,947.09
2017-05-19T04:28:08.218Z,947.06
2017-05-19T04:29:07.862Z,947.13
2017-05-19T04:30:07.439Z,947.15
2017-05-19T04:31:08.061Z,947.13
2017-05-19T04:32:07.656Z,947.18
2017-05-19T04:33:08.217Z,947.17
2017-05-19T04:34:07.943Z,947.20
2017-05-19T04:35:07.539Z,947.20
2017-05-19T04:36:08.198Z,947.18
2017-05-19T04:37:07.734Z,947.19
2017-05-19T04:38:08.359Z,947.22
2017-05-19T04:39:07.946Z,947.21
2017-05-19T04:40:07.604Z,947.21
2017-05-19T04:41:08.236Z,947.19
2017-05-19T04:42:07.821Z,947.20
2017-05-19T04:43:07.438Z,947.15
2017-05-19T04:44:07.965Z,947.17
2017-05-19T04:45:07.565Z,947.16
2017-05-19T04:46:08.090Z,947.20
2017-05-19T04:47:07.669Z,947.16
2017-05-19T04:48:08.259Z,947.18
2017-05-19T04:49:07.794Z,947.16
2017-05-19T04:50:07.390Z,947.16
2017-05-19T04:51:07.925Z,947.16
2017-05-19T04:52:07.554Z,947.15
2017-05-19T04:53:08.149Z,947.11
2017-05-19T04:54:07.878Z,947.16
2017-05-19T04:55:07.506Z,947.16
2017-05-19T04:56:08.107Z,947.15
2017-05-19T04:57:07.980Z,947.15
2017-05-19T04:58:07.606Z,947.18
2017-05-19T04:59:08.190Z,947.22
2017-05-19T05:00:08.487Z,947.22
2017-05-19T05:01:08.019Z,947.20
2017-05-19T05:02:07.639Z,947.21
2017-05-19T05:03:08.288Z,947.20
2017-05-19T05:04:07.849Z,947.21
2017-05-19T05:05:07.447Z,947.25
2017-05-19T05:06:08.010Z,947.24
2017-05-19T05:07:07.827Z,947.29
2017-05-19T05:08:07.609Z,947.37
2017-05-19T05:09:08.170Z,947.42
2017-05-19T05:10:07.647Z,947.47
2017-05-19T05:11:08.281Z,947.52
2017-05-19T05:12:07.899Z,947.44
2017-05-19T05:13:07.445Z,947.34
2017-05-19T05:14:08.031Z,947.38
2017-05-19T05:15:07.609Z,947.51
2017-05-19T05:16:08.252Z,947.52
2017-05-19T05:17:08.066Z,947.47
2017-05-19T05:18:07.614Z,947.52
2017-05-19T05:19:08.229Z,947.58
2017-05-19T05:20:07.897Z,947.55
2017-05-19T05:21:07.491Z,947.60
2017-05-19T05:22:08.197Z,947.57
2017-05-19T05:23:07.786Z,947.50
2017-05-19T05:24:07.355Z,947.57
2017-05-19T05:25:07.977Z,947.65
2017-05-19T05:26:07.593Z,947.62
2017-05-19T05:27:08.317Z,947.59
2017-05-19T05:28:07.788Z,947.57
2017-05-19T05:29:21.127Z,947.60
2017-05-19T05:30:07.745Z,947.63
2017-05-19T05:31:08.250Z,947.65
2017-05-19T05:32:07.989Z,947.61
2017-05-19T05:33:07.627Z,947.60
2017-05-19T05:34:08.130Z,947.61
2017-05-19T05:35:07.708Z,947.62
2017-05-19T05:36:08.358Z,947.57
2017-05-19T05:37:07.918Z,947.58
2017-05-19T05:38:07.456Z,947.58
2017-05-19T05:39:08.027Z,947.59
2017-05-19T05:40:07.571Z,947.56
2017-05-19T05:41:08.145Z,947.59
2017-05-19T05:42:07.674Z,947.60
2017-05-19T05:43:08.303Z,947.61
2017-05-19T05:44:07.933Z,947.63
2017-05-19T05:45:07.456Z,947.64
2017-05-19T05:46:08.101Z,947.68
2017-05-19T05:47:07.584Z,947.63
2017-05-19T05:48:08.188Z,947.65
2017-05-19T05:49:07.791Z,947.65
2017-05-19T05:50:07.443Z,947.67
2017-05-19T05:51:08.018Z,947.67
2017-05-19T05:52:07.496Z,947.72
2017-05-19T05:53:08.104Z,947.69
2017-05-19T05:54:07.573Z,947.67
2017-05-19T05:55:08.232Z,947.70
2017-05-19T05:56:07.861Z,947.71
2017-05-19T05:57:07.753Z,947.69
2017-05-19T05:58:08.337Z,947.71
2017-05-19T05:59:07.894Z,947.67
2017-05-19T06:00:07.521Z,947.69
2017-05-19T06:01:08.011Z,947.68
2017-05-19T06:02:07.800Z,947.66
2017-05-19T06:03:07.360Z,947.69
2017-05-19T06:04:07.971Z,947.66
2017-05-19T06:05:07.546Z,947.62
2017-05-19T06:06:08.162Z,947.69
2017-05-19T06:07:07.710Z,947.69
2017-05-19T06:08:08.275Z,947.69
2017-05-19T06:09:07.826Z,947.67
2017-05-19T06:10:07.490Z,947.65
2017-05-19T06:11:08.064Z,947.71
2017-05-19T06:12:07.579Z,947.65
2017-05-19T06:13:08.133Z,947.71
2017-05-19T06:14:07.789Z,947.71
2017-05-19T06:15:07.430Z,947.68
2017-05-19T06:16:08.051Z,947.66
2017-05-19T06:17:07.755Z,947.69
2017-05-19T06:18:08.354Z,947.67
2017-05-19T06:19:07.919Z,947.65
2017-05-19T06:20:07.648Z,947.68
2017-05-19T06:21:08.158Z,947.64
2017-05-19T06:22:07.775Z,947.65
2017-05-19T06:23:07.337Z,947.60
2017-05-19T06:24:07.875Z,947.63
2017-05-19T06:25:07.526Z,947.58
2017-05-19T06:26:08.116Z,947.56
2017-05-19T06:27:07.707Z,947.55
2017-05-19T06:28:08.307Z,947.54
2017-05-19T06:29:07.880Z,947.55
2017-05-19T06:30:07.680Z,947.52
2017-05-19T06:31:08.184Z,947.54
2017-05-19T06:32:07.757Z,947.55
2017-05-19T06:33:07.225Z,947.50
2017-05-19T06:34:07.842Z,947.51
2017-05-19T06:35:07.335Z,947.52
2017-05-19T06:36:07.946Z,947.51
2017-05-19T06:37:07.511Z,947.50
2017-05-19T06:38:08.066Z,947.46
2017-05-19T06:39:07.615Z,947.51
2017-05-19T06:40:08.188Z,947.48
2017-05-19T06:41:07.762Z,947.48
2017-05-19T06:42:07.297Z,947.55
2017-05-19T06:43:07.939Z,947.51
2017-05-19T06:44:07.454Z,947.50
2017-05-19T06:45:08.144Z,947.51
2017-05-19T06:46:07.707Z,947.54
2017-05-19T06:47:08.346Z,947.50
2017-05-19T06:48:07.956Z,947.53
2017-05-19T06:49:07.491Z,947.51
2017-05-19T06:50:08.197Z,947.54
2017-05-19T06:51:07.743Z,947.57
2017-05-19T06:52:08.310Z,947.57
2017-05-19T06:53:08.176Z,947.61
2017-05-19T06:54:07.809Z,947.61
2017-05-19T06:55:07.300Z,947.64
2017-05-19T06:56:08.327Z,947.61
2017-05-19T06:57:08.077Z,947.64
2017-05-19T06:58:07.630Z,947.63
2017-05-19T06:59:08.261Z,947.63
2017-05-19T07:00:07.825Z,947.60
2017-05-19T07:01:07.426Z,947.52
2017-05-19T07:02:08.092Z,947.53
2017-05-19T07:03:07.694Z,947.51
2017-05-19T07:04:08.352Z,947.54
2017-05-19T07:05:07.989Z,947.50
2017-05-19T07:06:07.594Z,947.51
2017-05-19T07:07:08.240Z,947.49
2017-05-19T07:08:07.783Z,947.52
2017-05-19T07:09:07.526Z,947.48
2017-05-19T07:10:08.086Z,947.47
2017-05-19T07:11:07.597Z,947.44
2017-05-19T07:12:08.266Z,947.44
2017-05-19T07:13:07.862Z,947.50
2017-05-19T07:14:07.631Z,947.43
2017-05-19T07:15:08.295Z,947.42
2017-05-19T07:16:07.852Z,947.38
2017-05-19T07:17:07.571Z,947.41
2017-05-19T07:18:08.071Z,947.39
2017-05-19T07:19:07.913Z,947.41
2017-05-19T07:20:07.520Z,947.36
2017-05-19T07:21:08.141Z,947.41
2017-05-19T07:22:07.768Z,947.40
2017-05-19T07:23:07.499Z,947.42
2017-05-19T07:24:08.114Z,947.46
2017-05-19T07:25:07.613Z,947.42
2017-05-19T07:26:08.192Z,947.41
2017-05-19T07:28:07.945Z,947.38
2017-05-19T07:29:07.406Z,947.42
2017-05-19T07:30:07.962Z,947.40
2017-05-19T07:31:07.554Z,947.41
2017-05-19T07:32:08.004Z,947.43
2017-05-19T07:33:07.605Z,947.38
2017-05-19T07:34:08.254Z,947.42
2017-05-19T07:35:07.810Z,947.40
2017-05-19T07:36:07.430Z,947.36
2017-05-19T07:37:08.182Z,947.36
2017-05-19T07:38:07.795Z,947.38
2017-05-19T07:39:07.405Z,947.35
2017-05-19T07:40:08.500Z,947.34
2017-05-19T07:41:08.073Z,947.28
2017-05-19T07:42:07.645Z,947.35
2017-05-19T07:43:08.316Z,947.33
2017-05-19T07:44:07.819Z,947.36
2017-05-19T07:45:07.513Z,947.30
2017-05-19T07:46:08.063Z,947.30
2017-05-19T07:47:07.563Z,947.29
2017-05-19T07:48:08.199Z,947.26
2017-05-19T07:49:07.684Z,947.27
2017-05-19T07:50:08.436Z,947.24
2017-05-19T07:51:08.334Z,947.23
2017-05-19T07:52:07.916Z,947.19
2017-05-19T07:53:07.334Z,947.20
2017-05-19T07:54:07.900Z,947.24
2017-05-19T07:55:07.593Z,947.21
2017-05-19T07:56:08.196Z,947.15
2017-05-19T07:57:07.742Z,947.18
2017-05-19T07:58:07.263Z,947.19
2017-05-19T07:59:07.792Z,947.13
2017-05-19T08:00:07.356Z,947.14
2017-05-19T08:01:07.952Z,947.11
2017-05-19T08:02:07.512Z,947.08
2017-05-19T08:03:08.051Z,947.08
2017-05-19T08:04:07.592Z,947.06
2017-05-19T08:05:08.128Z,947.03
2017-05-19T08:06:07.697Z,947.03
2017-05-19T08:07:08.309Z,946.99
2017-05-19T08:08:07.961Z,946.98
2017-05-19T08:09:07.565Z,946.98
2017-05-19T08:10:07.640Z,947.01
2017-05-19T08:11:08.273Z,946.97
2017-05-19T08:12:07.805Z,947.06
2017-05-19T08:13:07.269Z,946.98
2017-05-19T08:14:07.739Z,947.00
2017-05-19T08:15:08.449Z,947.02
2017-05-19T08:16:08.076Z,946.98
2017-05-19T08:17:07.810Z,946.98
2017-05-19T08:18:07.328Z,947.01
2017-05-19T08:19:07.891Z,947.03
2017-05-19T08:20:07.624Z,946.99
2017-05-19T08:21:08.222Z,946.97
2017-05-19T08:22:07.774Z,947.00
2017-05-19T08:23:07.275Z,946.98
2017-05-19T08:24:08.129Z,946.99
2017-05-19T08:25:07.689Z,947.00
2017-05-19T08:26:08.453Z,946.92
2017-05-19T08:27:08.051Z,946.97
2017-05-19T08:28:07.613Z,946.95
2017-05-19T08:29:08.181Z,946.93
2017-05-19T08:30:07.744Z,946.94
2017-05-19T08:31:08.292Z,946.92
2017-05-19T08:32:07.782Z,946.93
2017-05-19T08:33:07.355Z,946.91
2017-05-19T08:34:07.960Z,946.88
2017-05-19T08:35:07.540Z,946.90
2017-05-19T08:36:08.085Z,946.85
2017-05-19T08:37:07.689Z,946.86
2017-05-19T08:38:08.341Z,946.86
2017-05-19T08:39:07.878Z,946.87
2017-05-19T08:40:07.430Z,946.78
2017-05-19T08:41:08.023Z,946.84
2017-05-19T08:42:07.572Z,946.85
2017-05-19T08:43:08.231Z,946.82
2017-05-19T08:44:07.774Z,946.82
2017-05-19T08:45:07.565Z,946.82
2017-05-19T08:46:08.251Z,946.78
2017-05-19T08:47:07.925Z,946.77
2017-05-19T08:48:07.429Z,946.79
2017-05-19T08:49:07.998Z,946.76
2017-05-19T08:50:07.648Z,946.75
2017-05-19T08:51:08.139Z,946.77
2017-05-19T08:52:07.953Z,946.77
2017-05-19T08:53:07.545Z,946.75
2017-05-19T08:54:08.138Z,946.76
2017-05-19T08:55:07.771Z,946.79
2017-05-19T08:56:07.382Z,946.78
2017-05-19T08:57:07.956Z,946.77
2017-05-19T08:58:07.616Z,946.77
2017-05-19T08:59:08.189Z,946.80
2017-05-19T09:00:07.744Z,946.79
2017-05-19T09:01:08.327Z,946.76
2017-05-19T09:02:07.961Z,946.77
2017-05-19T09:03:07.585Z,946.79
2017-05-19T09:04:08.231Z,946.78
2017-05-19T09:05:07.790Z,946.76
2017-05-19T09:06:07.285Z,946.80
2017-05-19T09:07:07.812Z,946.79
2017-05-19T09:08:07.381Z,946.74
2017-05-19T09:09:07.982Z,946.75
2017-05-19T09:10:07.602Z,946.74
2017-05-19T09:11:08.188Z,946.76
2017-05-19T09:12:07.682Z,946.78
2017-05-19T09:13:08.238Z,946.71
2017-05-19T09:14:07.792Z,946.72
2017-05-19T09:15:07.301Z,946.72
2017-05-19T09:16:07.879Z,946.72
2017-05-19T09:17:07.510Z,946.76
2017-05-19T09:18:08.065Z,946.79
2017-05-19T09:19:07.623Z,946.79
2017-05-19T09:20:08.265Z,946.76
2017-05-19T09:21:07.745Z,946.74
2017-05-19T09:22:08.320Z,946.74
2017-05-19T09:23:08.217Z,946.73
2017-05-19T09:24:07.777Z,946.70
2017-05-19T09:25:07.365Z,946.69
2017-05-19T09:26:07.822Z,946.71
2017-05-19T09:27:07.343Z,946.69
2017-05-19T09:28:07.936Z,946.67
2017-05-19T09:29:07.486Z,946.69
2017-05-19T09:30:08.066Z,946.67
2017-05-19T09:31:07.663Z,946.69
2017-05-19T09:32:08.236Z,946.68
2017-05-19T09:33:07.808Z,946.71
2017-05-19T09:34:07.364Z,946.70
2017-05-19T09:35:07.838Z,946.71
2017-05-19T09:36:07.580Z,946.71
2017-05-19T09:37:08.161Z,946.71
2017-05-19T09:38:07.765Z,946.69
2017-05-19T09:39:07.392Z,946.66
2017-05-19T09:40:07.981Z,946.65
2017-05-19T09:41:07.518Z,946.67
2017-05-19T09:42:08.144Z,946.65
2017-05-19T09:43:07.703Z,946.67
2017-05-19T09:44:07.434Z,946.68
2017-05-19T09:45:08.108Z,946.65
2017-05-19T09:46:07.648Z,946.67
2017-05-19T09:47:08.184Z,946.64
2017-05-19T09:48:08.075Z,946.67
2017-05-19T09:49:07.659Z,946.67
2017-05-19T09:50:08.092Z,946.66
2017-05-19T09:51:21.515Z,946.68
2017-05-19T09:52:08.060Z,946.69
2017-05-19T09:53:07.562Z,946.68
2017-05-19T09:54:08.113Z,946.68
2017-05-19T09:55:07.674Z,946.64
2017-05-19T09:56:08.274Z,946.65
2017-05-19T09:57:07.869Z,946.66
2017-05-19T09:58:07.392Z,946.69
2017-05-19T09:59:08.008Z,946.67
2017-05-19T10:00:07.600Z,946.69
2017-05-19T10:01:08.193Z,946.66
2017-05-19T10:02:07.749Z,946.66
2017-05-19T10:03:08.448Z,946.64
2017-05-19T10:04:08.232Z,946.65
2017-05-19T10:05:07.772Z,946.67
2017-05-19T10:06:07.338Z,946.69
2017-05-19T10:07:07.864Z,946.70
2017-05-19T10:08:07.395Z,946.66
2017-05-19T10:09:07.878Z,946.64
2017-05-19T10:10:07.456Z,946.64
2017-05-19T10:11:08.026Z,946.59
2017-05-19T10:12:07.863Z,946.63
2017-05-19T10:13:07.293Z,946.63
2017-05-19T10:14:07.805Z,946.56
2017-05-19T10:15:07.283Z,946.55
2017-05-19T10:16:08.006Z,946.53
2017-05-19T10:17:07.685Z,946.54
2017-05-19T10:18:08.355Z,946.48
2017-05-19T10:19:07.927Z,946.46
2017-05-19T10:20:07.543Z,946.47
2017-05-19T10:21:08.164Z,946.48
2017-05-19T10:22:07.660Z,946.44
2017-05-19T10:23:08.242Z,946.50
2017-05-19T10:24:07.857Z,946.47
2017-05-19T10:25:07.460Z,946.46
2017-05-19T10:26:08.212Z,946.46
2017-05-19T10:27:07.845Z,946.40
2017-05-19T10:28:07.454Z,946.41
2017-05-19T10:29:07.983Z,946.42
2017-05-19T10:30:07.550Z,946.40
2017-05-19T10:31:08.163Z,946.36
2017-05-19T10:32:07.706Z,946.39
2017-05-19T10:33:08.320Z,946.38
2017-05-19T10:34:07.856Z,946.33
2017-05-19T10:35:07.395Z,946.38
2017-05-19T10:36:07.946Z,946.39
2017-05-19T10:37:07.434Z,946.33
2017-05-19T10:38:07.971Z,946.39
2017-05-19T10:39:07.567Z,946.38
2017-05-19T10:40:08.141Z,946.38
2017-05-19T10:41:07.752Z,946.35
2017-05-19T10:42:08.356Z,946.35
2017-05-19T10:43:07.957Z,946.37
2017-05-19T10:44:07.493Z,946.31
2017-05-19T10:45:08.095Z,946.33
2017-05-19T10:46:07.965Z,946.31
2017-05-19T10:47:07.551Z,946.29
2017-05-19T10:48:14.123Z,946.30
2017-05-19T10:49:07.591Z,946.26
2017-05-19T10:50:07.821Z,946.32
2017-05-19T10:51:07.365Z,946.27
2017-05-19T10:52:08.023Z,946.29
2017-05-19T10:53:07.856Z,946.32
2017-05-19T10:54:07.504Z,946.27
2017-05-19T10:55:08.069Z,946.28
2017-05-19T10:56:07.659Z,946.34
2017-05-19T10:57:08.245Z,946.32
2017-05-19T10:58:07.842Z,946.30
2017-05-19T10:59:07.620Z,946.31
2017-05-19T11:00:08.210Z,946.28
2017-05-19T11:01:07.801Z,946.36
2017-05-19T11:02:07.268Z,946.32
2017-05-19T11:03:07.872Z,946.30
2017-05-19T11:04:07.411Z,946.33
2017-05-19T11:05:08.006Z,946.31
2017-05-19T11:06:07.594Z,946.29
2017-05-19T11:07:08.149Z,946.35
2017-05-19T11:08:07.748Z,946.34
2017-05-19T11:09:08.308Z,946.32
2017-05-19T11:10:07.839Z,946.35
2017-05-19T11:11:07.343Z,946.36
2017-05-19T11:12:07.957Z,946.41
2017-05-19T11:13:07.527Z,946.40
2017-05-19T11:14:08.130Z,946.41
2017-05-19T11:15:07.646Z,946.39
2017-05-19T11:16:08.246Z,946.38
2017-05-19T11:17:08.093Z,946.40
2017-05-19T11:18:07.680Z,946.36
2017-05-19T11:19:08.472Z,946.39
2017-05-19T11:20:08.166Z,946.36
2017-05-19T11:21:07.730Z,946.45
2017-05-19T11:22:08.299Z,946.40
2017-05-19T11:23:07.818Z,946.43
2017-05-19T11:24:07.418Z,946.43
2017-05-19T11:25:08.010Z,946.41
2017-05-19T11:26:07.497Z,946.46
2017-05-19T11:27:08.308Z,946.40
2017-05-19T11:28:08.019Z,946.38
2017-05-19T11:29:07.606Z,946.34
2017-05-19T11:30:08.144Z,946.36
2017-05-19T11:31:07.736Z,946.35
2017-05-19T11:32:08.227Z,946.31
2017-05-19T11:33:07.723Z,946.28
2017-05-19T11:34:08.339Z,946.32
2017-05-19T11:35:07.909Z,946.31
2017-05-19T11:36:07.534Z,946.33
2017-05-19T11:37:08.120Z,946.37
2017-05-19T11:38:07.681Z,946.40
2017-05-19T11:39:08.330Z,946.34
2017-05-19T11:40:08.029Z,946.35
2017-05-19T11:41:07.848Z,946.28
2017-05-19T11:42:07.588Z,946.31
2017-05-19T11:43:08.099Z,946.32
2017-05-19T11:44:07.769Z,946.28
2017-05-19T11:45:07.469Z,946.30
2017-05-19T11:46:07.977Z,946.33
2017-05-19T11:47:07.538Z,946.34
2017-05-19T11:48:08.308Z,946.30
2017-05-19T11:49:07.968Z,946.27
2017-05-19T11:50:07.658Z,946.30
2017-05-19T11:51:08.316Z,946.30
2017-05-19T11:52:08.010Z,946.32
2017-05-19T11:53:07.567Z,946.25
2017-05-19T11:54:08.281Z,946.32
2017-05-19T11:55:07.798Z,946.29
2017-05-19T11:56:07.335Z,946.33
2017-05-19T11:57:07.846Z,946.36
2017-05-19T11:58:07.419Z,946.26
2017-05-19T11:59:08.058Z,946.27
2017-05-19T12:00:07.659Z,946.31
2017-05-19T12:01:08.219Z,946.32
2017-05-19T12:02:07.789Z,946.33
2017-05-19T12:03:07.366Z,946.32
2017-05-19T12:04:08.083Z,946.30
2017-05-19T12:05:07.668Z,946.30
2017-05-19T12:06:08.237Z,946.26
2017-05-19T12:07:07.862Z,946.26
2017-05-19T12:08:07.633Z,946.29
2017-05-19T12:09:08.157Z,946.24
2017-05-19T12:10:07.654Z,946.28
2017-05-19T12:11:08.296Z,946.28
2017-05-19T12:12:07.917Z,946.30
2017-05-19T12:13:07.484Z,946.32
2017-05-19T12:14:08.117Z,946.27
2017-05-19T12:15:07.857Z,946.31
2017-05-19T12:16:07.439Z,946.41
2017-05-19T12:17:08.199Z,946.36
2017-05-19T12:18:07.868Z,946.30
2017-05-19T12:19:07.430Z,946.37
2017-05-19T12:20:08.086Z,946.37
2017-05-19T12:21:07.648Z,946.32
2017-05-19T12:22:08.232Z,946.42
2017-05-19T12:23:07.882Z,946.51
2017-05-19T12:24:07.327Z,946.54
2017-05-19T12:25:07.788Z,946.60
2017-05-19T12:26:07.337Z,946.63
2017-05-19T12:27:07.967Z,946.63
2017-05-19T12:28:07.576Z,946.63
2017-05-19T12:29:08.244Z,946.58